createdAt,value
2022-10-31T00:01:14.973Z,101797.13
2022-10-31T00:03:42.545Z,101793.78
2022-10-31T00:06:10.064Z,101800.16
2022-10-31T00:08:37.644Z,101802.34
2022-10-31T00:11:10.912Z,101817.56
2022-10-31T00:13:38.493Z,101815.22
2022-10-31T00:16:06.765Z,101807.56
2022-10-31T00:18:34.316Z,101807.94
2022-10-31T00:21:02.359Z,101811.94
2022-10-31T00:23:30.088Z,101812.28
2022-10-31T00:26:02.715Z,101818.34
2022-10-31T00:28:32.959Z,101806.00
2022-10-31T00:31:01.909Z,101804.88
2022-10-31T00:33:30.220Z,101811.38
2022-10-31T00:35:58.071Z,101799.06
2022-10-31T00:38:25.588Z,101809.06
2022-10-31T00:40:53.228Z,101810.94
2022-10-31T00:43:20.756Z,101817.41
2022-10-31T00:45:49.704Z,101813.09
2022-10-31T00:48:17.303Z,101807.94
2022-10-31T00:50:44.826Z,101816.78
2022-10-31T00:53:12.376Z,101816.97
2022-10-31T00:55:40.035Z,101822.13
2022-10-31T00:58:07.630Z,101822.94
2022-10-31T01:00:35.441Z,101818.44
2022-10-31T01:03:04.658Z,101813.75
2022-10-31T01:05:32.483Z,101811.72
2022-10-31T01:08:00.536Z,101816.56
2022-10-31T01:10:28.113Z,101817.88
2022-10-31T01:12:55.632Z,101819.19
2022-10-31T01:15:24.720Z,101815.16
2022-10-31T01:17:52.264Z,101811.09
2022-10-31T01:20:21.368Z,101819.81
2022-10-31T01:22:48.905Z,101823.31
2022-10-31T01:25:16.452Z,101834.00
2022-10-31T01:27:43.980Z,101840.13
2022-10-31T01:30:12.604Z,101840.81
2022-10-31T01:32:40.177Z,101835.78
2022-10-31T01:35:08.574Z,101838.94
2022-10-31T01:37:37.457Z,101846.22
2022-10-31T01:40:05.780Z,101844.56
2022-10-31T01:42:33.313Z,101849.84
2022-10-31T01:45:02.884Z,101847.28
2022-10-31T01:47:39.717Z,101846.38
2022-10-31T01:50:14.676Z,101843.00
2022-10-31T01:52:46.718Z,101848.63
2022-10-31T01:55:20.221Z,101855.50
2022-10-31T01:57:52.132Z,101857.13
2022-10-31T02:00:22.049Z,101856.50
2022-10-31T02:02:51.752Z,101860.34
2022-10-31T02:05:23.732Z,101865.38
2022-10-31T02:07:59.178Z,101861.22
2022-10-31T02:10:27.013Z,101856.09
2022-10-31T02:12:57.756Z,101864.09
2022-10-31T02:15:25.597Z,101865.75
2022-10-31T02:17:53.561Z,101875.44
2022-10-31T02:20:23.465Z,101883.09
2022-10-31T02:23:35.383Z,101879.25
2022-10-31T02:26:28.453Z,101877.25
2022-10-31T02:29:22.137Z,101882.22
2022-10-31T02:32:02.421Z,101878.53
2022-10-31T02:34:38.712Z,101892.56
2022-10-31T02:37:13.251Z,101887.84
2022-10-31T02:39:47.947Z,101879.84
2022-10-31T02:42:23.136Z,101886.38
2022-10-31T02:44:54.707Z,101885.06
2022-10-31T02:47:28.245Z,101883.94
2022-10-31T02:49:59.812Z,101886.47
2022-10-31T02:52:29.154Z,101892.53
2022-10-31T02:54:57.008Z,101895.91
2022-10-31T02:57:27.520Z,101898.47
2022-10-31T03:00:08.250Z,101895.50
2022-10-31T03:02:48.260Z,101889.97
2022-10-31T03:05:34.860Z,101895.03
2022-10-31T03:08:08.613Z,101895.53
2022-10-31T03:10:42.248Z,101895.88
2022-10-31T03:13:12.922Z,101898.25
2022-10-31T03:15:45.329Z,101894.09
2022-10-31T03:18:19.261Z,101900.63
2022-10-31T03:20:51.036Z,101901.81
2022-10-31T03:23:21.402Z,101901.81
2022-10-31T03:25:50.732Z,101896.81
2022-10-31T03:28:23.818Z,101905.00
2022-10-31T03:30:53.313Z,101906.03
2022-10-31T03:33:28.481Z,101913.34
2022-10-31T03:36:00.287Z,101917.03
2022-10-31T03:38:28.280Z,101916.22
2022-10-31T03:40:59.645Z,101931.41
2022-10-31T03:43:32.173Z,101936.72
2022-10-31T03:46:00.073Z,101931.41
2022-10-31T03:48:29.428Z,101935.06
2022-10-31T03:51:06.845Z,101942.22
2022-10-31T03:53:38.849Z,101943.25
2022-10-31T03:56:12.016Z,101951.41
2022-10-31T03:58:47.215Z,101952.44
2022-10-31T04:01:18.859Z,101961.44
2022-10-31T04:03:48.177Z,101965.13
2022-10-31T04:06:18.832Z,101964.47
2022-10-31T04:08:51.696Z,101971.63
2022-10-31T04:11:23.904Z,101969.16
2022-10-31T04:13:52.577Z,101978.81
2022-10-31T04:16:21.432Z,101975.97
2022-10-31T04:18:50.336Z,101980.31
2022-10-31T04:21:18.121Z,101984.50
2022-10-31T04:23:45.673Z,101988.81
2022-10-31T04:26:14.531Z,101986.81
2022-10-31T04:28:42.062Z,101991.13
2022-10-31T04:31:12.082Z,101996.31
2022-10-31T04:33:39.711Z,101996.31
2022-10-31T04:36:09.153Z,101992.81
2022-10-31T04:38:36.728Z,101988.31
2022-10-31T04:41:04.622Z,101990.97
2022-10-31T04:43:32.141Z,101994.66
2022-10-31T04:45:59.696Z,101991.13
2022-10-31T04:48:27.356Z,101996.66
2022-10-31T04:50:54.865Z,101994.00
2022-10-31T04:53:23.744Z,101988.81
2022-10-31T04:55:51.281Z,101989.84
2022-10-31T04:58:18.823Z,101979.16
2022-10-31T05:00:46.507Z,101985.47
2022-10-31T05:03:14.073Z,101980.31
2022-10-31T05:05:41.597Z,101985.81
2022-10-31T05:08:09.172Z,101987.66
2022-10-31T05:10:38.173Z,101984.34
2022-10-31T05:13:06.830Z,101988.84
2022-10-31T05:15:34.592Z,101992.34
2022-10-31T05:18:02.690Z,101991.31
2022-10-31T05:20:32.581Z,101992.16
2022-10-31T05:23:00.929Z,101994.69
2022-10-31T05:25:30.177Z,101996.31
2022-10-31T05:27:59.829Z,101995.31
2022-10-31T05:30:30.729Z,102000.66
2022-10-31T05:32:58.792Z,101993.66
2022-10-31T05:35:28.414Z,101989.34
2022-10-31T05:37:55.972Z,101993.00
2022-10-31T05:40:24.068Z,101993.84
2022-10-31T05:42:53.577Z,101998.19
2022-10-31T05:45:23.491Z,101999.00
2022-10-31T05:47:55.024Z,102007.00
2022-10-31T05:50:22.676Z,102007.19
2022-10-31T05:52:56.969Z,102009.84
2022-10-31T05:55:24.572Z,102007.19
2022-10-31T05:57:52.267Z,102004.50
2022-10-31T06:00:20.192Z,102005.34
2022-10-31T06:02:49.389Z,102004.50
2022-10-31T06:05:17.717Z,102004.50
2022-10-31T06:07:45.262Z,102016.03
2022-10-31T06:10:12.859Z,102013.38
2022-10-31T06:12:41.593Z,102005.34
2022-10-31T06:15:10.340Z,102011.34
2022-10-31T06:17:38.147Z,102010.34
2022-10-31T06:20:08.833Z,102015.50
2022-10-31T06:22:36.423Z,102016.19
2022-10-31T06:25:04.440Z,102018.53
2022-10-31T06:27:31.992Z,102027.34
2022-10-31T06:29:59.519Z,102018.34
2022-10-31T06:32:27.234Z,102012.00
2022-10-31T06:34:54.766Z,102021.84
2022-10-31T06:37:23.765Z,102023.53
2022-10-31T06:39:51.324Z,102025.16
2022-10-31T06:42:19.029Z,102033.19
2022-10-31T06:44:46.654Z,102026.66
2022-10-31T06:47:14.183Z,102036.19
2022-10-31T06:49:41.725Z,102041.19
2022-10-31T06:52:09.248Z,102052.34
2022-10-31T06:54:38.173Z,102049.19
2022-10-31T06:57:05.708Z,102055.84
2022-10-31T06:59:33.394Z,102063.00
2022-10-31T07:02:01.043Z,102067.34
2022-10-31T07:04:28.685Z,102075.34
2022-10-31T07:06:56.269Z,102077.31
2022-10-31T07:09:23.813Z,102071.28
2022-10-31T07:11:54.003Z,102084.16
2022-10-31T07:14:21.660Z,102080.78
2022-10-31T07:16:51.201Z,102079.06
2022-10-31T07:19:19.209Z,102084.06
2022-10-31T07:21:46.748Z,102088.91
2022-10-31T07:24:14.268Z,102084.00
2022-10-31T07:26:43.208Z,102085.34
2022-10-31T07:29:12.197Z,102092.03
2022-10-31T07:31:39.841Z,102097.88
2022-10-31T07:34:07.368Z,102098.31
2022-10-31T07:36:34.895Z,102090.97
2022-10-31T07:39:03.208Z,102093.78
2022-10-31T07:41:30.820Z,102094.06
2022-10-31T07:43:58.357Z,102092.53
2022-10-31T07:46:27.321Z,102102.69
2022-10-31T07:48:54.865Z,102107.53
2022-10-31T07:51:22.403Z,102110.50
2022-10-31T07:53:49.934Z,102106.47
2022-10-31T07:56:17.452Z,102109.09
2022-10-31T07:58:45.069Z,102112.38
2022-10-31T08:03:46.481Z,102114.41
2022-10-31T08:06:14.021Z,102112.13
2022-10-31T08:08:41.553Z,102111.06
2022-10-31T08:11:09.079Z,102120.41
2022-10-31T08:13:36.716Z,102122.34
2022-10-31T08:16:05.511Z,102123.47
2022-10-31T08:18:33.572Z,102124.38
2022-10-31T08:21:02.479Z,102122.03
2022-10-31T08:23:30.029Z,102125.59
2022-10-31T08:25:59.396Z,102135.22
2022-10-31T08:28:27.073Z,102136.19
2022-10-31T08:30:54.583Z,102136.06
2022-10-31T08:33:22.148Z,102120.66
2022-10-31T08:35:50.613Z,102126.38
2022-10-31T08:38:19.479Z,102131.72
2022-10-31T08:40:50.809Z,102129.91
2022-10-31T08:43:19.762Z,102124.28
2022-10-31T08:45:50.803Z,102123.63
2022-10-31T08:48:19.204Z,102116.53
2022-10-31T08:50:47.315Z,102115.00
2022-10-31T08:53:17.036Z,102113.84
2022-10-31T08:55:47.093Z,102106.94
2022-10-31T08:58:16.633Z,102112.44
2022-10-31T09:00:44.786Z,102103.00
2022-10-31T09:03:16.012Z,102110.38
2022-10-31T09:05:43.637Z,102108.97
2022-10-31T09:08:15.954Z,102103.47
2022-10-31T09:10:46.431Z,102103.00
2022-10-31T09:13:15.379Z,102098.78
2022-10-31T09:15:45.429Z,102090.94
2022-10-31T09:18:14.415Z,102102.22
2022-10-31T09:20:43.341Z,102094.97
2022-10-31T09:23:12.646Z,102088.78
2022-10-31T09:25:40.659Z,102094.78
2022-10-31T09:28:12.500Z,102088.41
2022-10-31T09:30:40.472Z,102084.50
2022-10-31T09:33:11.036Z,102087.59
2022-10-31T09:35:39.085Z,102078.09
2022-10-31T09:38:08.933Z,102080.78
2022-10-31T09:40:38.820Z,102088.91
2022-10-31T09:43:16.898Z,102080.59
2022-10-31T09:45:55.690Z,102089.72
2022-10-31T09:48:39.669Z,102084.53
2022-10-31T09:51:10.829Z,102088.47
2022-10-31T09:53:42.370Z,102078.94
2022-10-31T09:56:13.777Z,102086.19
2022-10-31T09:58:45.405Z,102088.47
2022-10-31T10:01:30.668Z,102085.34
2022-10-31T10:04:03.402Z,102081.22
2022-10-31T10:06:34.481Z,102088.28
2022-10-31T10:09:03.296Z,102093.88
2022-10-31T10:11:44.352Z,102095.13
2022-10-31T10:14:33.873Z,102094.91
2022-10-31T10:17:14.115Z,102092.81
2022-10-31T10:19:54.303Z,102089.28
2022-10-31T10:22:30.175Z,102094.84
2022-10-31T10:25:16.726Z,102088.00
2022-10-31T10:27:52.390Z,102088.41
2022-10-31T10:30:23.468Z,102083.06
2022-10-31T10:32:55.178Z,102088.69
2022-10-31T10:35:28.160Z,102094.69
2022-10-31T10:38:00.941Z,102089.50
2022-10-31T10:40:30.068Z,102092.63
2022-10-31T10:43:22.395Z,102090.34
2022-10-31T10:46:16.812Z,102090.75
2022-10-31T10:48:47.197Z,102085.53
2022-10-31T10:51:38.872Z,102084.56
2022-10-31T10:54:28.862Z,102079.34
2022-10-31T10:57:07.448Z,102078.53
2022-10-31T10:59:36.540Z,102082.25
2022-10-31T11:02:17.878Z,102078.50
2022-10-31T11:04:47.382Z,102075.63
2022-10-31T11:07:14.920Z,102078.31
2022-10-31T11:09:42.535Z,102066.72
2022-10-31T11:12:11.964Z,102065.88
2022-10-31T11:14:48.436Z,102061.72
2022-10-31T11:17:27.190Z,102059.03
2022-10-31T11:20:25.012Z,102050.28
2022-10-31T11:23:03.885Z,102059.22
2022-10-31T11:25:31.454Z,102059.00
2022-10-31T11:28:03.704Z,102062.56
2022-10-31T11:30:32.260Z,102053.81
2022-10-31T11:33:01.532Z,102053.00
2022-10-31T11:35:31.172Z,102055.50
2022-10-31T11:38:03.331Z,102063.97
2022-10-31T11:40:31.257Z,102057.16
2022-10-31T11:43:00.862Z,102058.59
2022-10-31T11:45:33.523Z,102049.38
2022-10-31T11:48:04.322Z,102058.75
2022-10-31T11:50:37.559Z,102062.44
2022-10-31T11:53:06.168Z,102065.84
2022-10-31T11:55:36.079Z,102069.00
2022-10-31T11:58:04.557Z,102060.94
2022-10-31T12:00:34.055Z,102059.16
2022-10-31T12:03:22.424Z,102058.78
2022-10-31T12:05:55.397Z,102063.16
2022-10-31T12:08:23.029Z,102046.34
2022-10-31T12:10:59.860Z,102055.28
2022-10-31T12:13:35.872Z,102054.06
2022-10-31T12:16:14.349Z,102056.75
2022-10-31T12:19:00.864Z,102052.38
2022-10-31T12:21:47.013Z,102043.25
2022-10-31T12:24:25.091Z,102043.66
2022-10-31T12:27:03.435Z,102040.97
2022-10-31T12:29:48.773Z,102026.22
2022-10-31T12:32:30.011Z,102027.88
2022-10-31T12:35:15.985Z,102023.16
2022-10-31T12:38:04.549Z,102029.97
2022-10-31T12:40:58.752Z,102030.22
2022-10-31T12:43:37.258Z,102026.50
2022-10-31T12:46:10.017Z,102030.44
2022-10-31T12:49:03.976Z,102030.00
2022-10-31T12:51:40.186Z,102032.09
2022-10-31T12:54:21.806Z,102032.31
2022-10-31T12:56:55.860Z,102026.47
2022-10-31T12:59:29.523Z,102032.09
2022-10-31T13:02:02.352Z,102023.78
2022-10-31T13:04:41.176Z,102024.63
2022-10-31T13:07:15.368Z,102019.03
2022-10-31T13:09:47.200Z,102023.78
2022-10-31T13:12:19.128Z,102017.97
2022-10-31T13:14:50.731Z,102011.16
2022-10-31T13:17:27.960Z,102013.00
2022-10-31T13:20:04.509Z,102005.34
2022-10-31T13:22:36.581Z,102014.66
2022-10-31T13:25:11.674Z,102004.72
2022-10-31T13:27:50.723Z,102001.38
2022-10-31T13:30:21.064Z,101990.78
2022-10-31T13:32:53.613Z,101983.53
2022-10-31T13:35:27.707Z,101999.66
2022-10-31T13:38:07.711Z,101986.38
2022-10-31T13:40:41.654Z,101982.25
2022-10-31T13:43:21.257Z,101987.63
2022-10-31T13:45:53.864Z,101980.97
2022-10-31T13:48:42.089Z,101978.06
2022-10-31T13:51:11.946Z,101982.44
2022-10-31T13:53:45.513Z,101981.22
2022-10-31T13:56:19.756Z,101980.19
2022-10-31T13:59:20.493Z,101983.53
2022-10-31T14:01:50.879Z,101975.22
2022-10-31T14:04:25.181Z,101977.72
2022-10-31T14:06:59.163Z,101964.03
2022-10-31T14:09:32.128Z,101964.03
2022-10-31T14:12:03.676Z,101957.81
2022-10-31T14:14:37.708Z,101950.75
2022-10-31T14:17:05.359Z,101946.38
2022-10-31T14:19:32.945Z,101948.63
2022-10-31T14:22:00.550Z,101946.91
2022-10-31T14:24:38.638Z,101949.78
2022-10-31T14:27:34.805Z,101952.84
2022-10-31T14:30:15.532Z,101942.22
2022-10-31T14:32:45.055Z,101931.19
2022-10-31T14:35:21.387Z,101936.75
2022-10-31T14:38:14.005Z,101936.25
2022-10-31T14:40:54.332Z,101928.75
2022-10-31T14:43:45.339Z,101923.50
2022-10-31T14:46:20.209Z,101921.44
2022-10-31T14:49:06.537Z,101913.31
2022-10-31T14:51:39.076Z,101916.22
2022-10-31T14:54:08.051Z,101905.66
2022-10-31T14:56:43.715Z,101898.38
2022-10-31T14:59:16.523Z,101895.25
2022-10-31T15:01:55.868Z,101909.47
2022-10-31T15:04:26.695Z,101900.09
2022-10-31T15:06:59.924Z,101906.41
2022-10-31T15:09:29.417Z,101894.81
2022-10-31T15:12:00.554Z,101880.72
2022-10-31T15:14:29.984Z,101877.31
2022-10-31T15:16:59.762Z,101861.16
2022-10-31T15:19:29.397Z,101851.38
2022-10-31T15:21:58.827Z,101848.63
2022-10-31T15:24:33.036Z,101846.06
2022-10-31T15:27:04.840Z,101855.91
2022-10-31T15:29:33.631Z,101879.16
2022-10-31T15:32:02.779Z,101885.06
2022-10-31T15:34:37.763Z,101887.50
2022-10-31T15:37:05.536Z,101894.44
2022-10-31T15:39:33.961Z,101900.56
2022-10-31T15:42:03.343Z,101905.00
2022-10-31T15:44:33.544Z,101899.38
2022-10-31T15:47:03.359Z,101896.81
2022-10-31T15:49:36.173Z,101900.22
2022-10-31T15:52:16.621Z,101889.22
2022-10-31T15:54:49.812Z,101886.28
2022-10-31T15:57:19.284Z,101884.19
2022-10-31T15:59:49.997Z,101899.78
2022-10-31T16:02:21.794Z,101898.47
2022-10-31T16:04:52.371Z,101893.81
2022-10-31T16:07:23.542Z,101894.56
2022-10-31T16:09:57.179Z,101889.78
2022-10-31T16:12:31.064Z,101875.91
2022-10-31T16:14:58.607Z,101883.50
2022-10-31T16:17:28.014Z,101885.53
2022-10-31T16:19:59.003Z,101882.00
2022-10-31T16:22:29.169Z,101872.69
2022-10-31T16:25:03.960Z,101863.00
2022-10-31T16:27:34.781Z,101868.53
2022-10-31T16:30:05.274Z,101863.38
2022-10-31T16:32:36.325Z,101872.41
2022-10-31T16:35:20.343Z,101861.69
2022-10-31T16:37:48.972Z,101878.75
2022-10-31T16:40:17.126Z,101878.97
2022-10-31T16:42:48.111Z,101878.13
2022-10-31T16:45:19.256Z,101881.00
2022-10-31T16:47:47.284Z,101874.81
2022-10-31T16:50:16.759Z,101882.00
2022-10-31T16:53:08.419Z,101878.50
2022-10-31T16:55:35.829Z,101877.00
2022-10-31T16:58:04.929Z,101880.69
2022-10-31T17:00:34.440Z,101879.41
2022-10-31T17:03:02.165Z,101882.25
2022-10-31T17:05:30.307Z,101879.78
2022-10-31T17:07:58.712Z,101882.81
2022-10-31T17:10:27.252Z,101879.66
2022-10-31T17:12:55.584Z,101869.31
2022-10-31T17:15:26.710Z,101862.50
2022-10-31T17:17:55.045Z,101863.88
2022-10-31T17:20:24.771Z,101865.06
2022-10-31T17:22:52.724Z,101865.06
2022-10-31T17:25:23.659Z,101863.03
2022-10-31T17:27:52.239Z,101869.06
2022-10-31T17:30:21.228Z,101868.69
2022-10-31T17:32:51.044Z,101872.84
2022-10-31T17:35:19.844Z,101862.97
2022-10-31T17:37:47.876Z,101871.81
2022-10-31T17:40:17.510Z,101871.81
2022-10-31T17:42:50.573Z,101872.66
2022-10-31T17:45:18.657Z,101873.47
2022-10-31T17:47:47.973Z,101877.84
2022-10-31T17:50:17.145Z,101893.88
2022-10-31T17:52:44.744Z,101887.06
2022-10-31T17:55:12.764Z,101893.88
2022-10-31T17:57:40.737Z,101877.16
2022-10-31T18:00:12.601Z,101886.03
2022-10-31T18:02:40.270Z,101883.91
2022-10-31T18:05:08.712Z,101882.06
2022-10-31T18:07:38.189Z,101870.88
2022-10-31T18:10:07.010Z,101879.28
2022-10-31T18:12:36.612Z,101871.41
2022-10-31T18:15:04.704Z,101858.41
2022-10-31T18:17:33.048Z,101852.88
2022-10-31T18:20:01.076Z,101845.69
2022-10-31T18:22:28.635Z,101848.06
2022-10-31T18:25:01.885Z,101844.75
2022-10-31T18:27:29.962Z,101833.56
2022-10-31T18:29:57.493Z,101819.56
2022-10-31T18:32:25.077Z,101797.59
2022-10-31T18:34:52.620Z,101817.03
2022-10-31T18:37:20.182Z,101861.66
2022-10-31T18:39:47.725Z,101853.63
2022-10-31T18:42:16.613Z,101843.59
2022-10-31T18:44:44.155Z,101841.28
2022-10-31T18:47:11.712Z,101827.06
2022-10-31T18:49:39.252Z,101798.66
2022-10-31T18:52:06.804Z,101791.00
2022-10-31T18:54:34.387Z,101794.03
2022-10-31T18:57:02.158Z,101789.25
2022-10-31T18:59:31.059Z,101791.25
2022-10-31T19:01:58.687Z,101780.13
2022-10-31T19:04:26.465Z,101759.91
2022-10-31T19:06:55.774Z,101752.06
2022-10-31T19:09:24.183Z,101751.25
2022-10-31T19:11:51.868Z,101779.16
2022-10-31T19:14:19.594Z,101788.19
2022-10-31T19:16:51.924Z,101762.28
2022-10-31T19:19:20.500Z,101771.31
2022-10-31T19:21:48.460Z,101769.47
2022-10-31T19:24:16.063Z,101776.66
2022-10-31T19:26:43.737Z,101764.31
2022-10-31T19:29:11.433Z,101760.81
2022-10-31T19:31:38.993Z,101741.28
2022-10-31T19:34:07.885Z,101744.97
2022-10-31T19:36:36.461Z,101744.31
2022-10-31T19:39:04.198Z,101731.97
2022-10-31T19:41:32.062Z,101734.63
2022-10-31T19:44:00.649Z,101733.97
2022-10-31T19:46:51.761Z,101735.44
2022-10-31T19:49:17.645Z,101726.63
2022-10-31T19:51:45.199Z,101732.13
2022-10-31T19:54:13.016Z,101733.59
2022-10-31T19:56:40.582Z,101724.41
2022-10-31T19:59:08.227Z,101731.06
2022-10-31T20:01:36.119Z,101729.84
2022-10-31T20:04:03.904Z,101728.66
2022-10-31T20:06:34.712Z,101731.81
2022-10-31T20:09:04.024Z,101719.56
2022-10-31T20:11:32.231Z,101725.72
2022-10-31T20:14:00.777Z,101726.22
2022-10-31T20:16:29.364Z,101728.31
2022-10-31T20:18:59.429Z,101722.59
2022-10-31T20:21:29.683Z,101708.88
2022-10-31T20:23:59.905Z,101716.91
2022-10-31T20:26:28.498Z,101715.72
2022-10-31T20:28:56.599Z,101711.66
2022-10-31T20:31:26.713Z,101707.13
2022-10-31T20:33:55.693Z,101699.69
2022-10-31T20:36:23.810Z,101704.56
2022-10-31T20:38:52.720Z,101688.50
2022-10-31T20:41:21.833Z,101681.34
2022-10-31T20:43:49.588Z,101690.00
2022-10-31T20:46:18.856Z,101683.16
2022-10-31T20:48:46.491Z,101682.97
2022-10-31T20:53:45.402Z,101666.94
2022-10-31T20:56:15.393Z,101675.63
2022-10-31T20:58:45.632Z,101668.41
2022-10-31T21:01:16.882Z,101655.88
2022-10-31T21:03:45.564Z,101653.19
2022-10-31T21:06:14.173Z,101646.00
2022-10-31T21:08:42.637Z,101646.63
2022-10-31T21:11:11.971Z,101642.50
2022-10-31T21:13:41.304Z,101642.97
2022-10-31T21:16:12.711Z,101635.78
2022-10-31T21:18:41.964Z,101629.59
2022-10-31T21:21:10.052Z,101629.75
2022-10-31T21:23:37.626Z,101624.63
2022-10-31T21:26:06.621Z,101619.06
2022-10-31T21:28:34.224Z,101612.72
2022-10-31T21:31:06.304Z,101589.66
2022-10-31T21:33:35.312Z,101589.66
2022-10-31T21:36:04.089Z,101597.66
2022-10-31T21:38:31.860Z,101595.84
2022-10-31T21:41:01.323Z,101595.84
2022-10-31T21:43:29.707Z,101599.34
2022-10-31T21:46:02.666Z,101587.63
2022-10-31T21:48:30.212Z,101588.66
2022-10-31T21:51:03.917Z,101587.44
2022-10-31T21:53:49.053Z,101569.75
2022-10-31T21:56:16.660Z,101557.38
2022-10-31T21:58:44.181Z,101542.34
2022-10-31T22:01:11.848Z,101546.88
2022-10-31T22:03:41.164Z,101545.03
2022-10-31T22:06:11.845Z,101542.72
2022-10-31T22:08:40.532Z,101530.19
2022-10-31T22:11:10.220Z,101531.84
2022-10-31T22:13:38.433Z,101530.38
2022-10-31T22:16:08.184Z,101531.22
2022-10-31T22:18:36.412Z,101524.22
2022-10-31T22:21:05.220Z,101519.50
2022-10-31T22:23:34.093Z,101500.78
2022-10-31T22:26:04.819Z,101488.44
2022-10-31T22:28:32.955Z,101485.78
2022-10-31T22:31:04.789Z,101476.09
2022-10-31T22:33:32.541Z,101475.25
2022-10-31T22:36:02.801Z,101478.94
2022-10-31T22:38:30.373Z,101475.25
2022-10-31T22:41:00.025Z,101471.28
2022-10-31T22:43:28.248Z,101470.72
2022-10-31T22:45:56.450Z,101459.59
2022-10-31T22:48:23.980Z,101448.72
2022-10-31T22:50:51.693Z,101447.69
2022-10-31T22:53:19.351Z,101448.50
2022-10-31T22:55:46.876Z,101445.00
2022-10-31T22:58:15.764Z,101448.50
2022-10-31T23:00:43.330Z,101449.34
2022-10-31T23:03:10.951Z,101442.78
2022-10-31T23:05:38.494Z,101441.78
2022-10-31T23:08:06.544Z,101427.75
2022-10-31T23:10:35.697Z,101434.75
2022-10-31T23:13:20.822Z,101418.09
2022-10-31T23:15:49.696Z,101427.75
2022-10-31T23:18:36.626Z,101427.56
2022-10-31T23:21:07.479Z,101423.69
2022-10-31T23:23:36.697Z,101423.69
2022-10-31T23:26:22.692Z,101435.22
2022-10-31T23:28:50.276Z,101425.78
2022-10-31T23:31:19.145Z,101431.78
2022-10-31T23:33:46.659Z,101423.38
2022-10-31T23:36:14.192Z,101421.16
2022-10-31T23:38:42.624Z,101408.78
2022-10-31T23:41:10.397Z,101413.13
2022-10-31T23:43:37.916Z,101411.09
2022-10-31T23:46:05.615Z,101410.69
2022-10-31T23:48:34.517Z,101399.63
2022-10-31T23:51:02.244Z,101400.25
2022-10-31T23:53:29.814Z,101399.84
2022-10-31T23:55:57.531Z,101401.31
2022-10-31T23:58:25.064Z,101390.63
